Time;durP1;ratioP1;P1;durP2;ratioP2;P2;SDS_P1;SDS_P2;PMS_P1;PMS_P2;Temp;Humidity;BMP_temperature;BMP_pressure;BME280_temperature;BME280_humidity;BME280_pressure;Samples;Min_cycle;Max_cycle;Signal;HPM_P1;HPM_P2
2024/03/29 00:00:58;;;;;;;;;;;;;;;;;;107180;1251;62067;-78
2024/03/29 00:03:44;;;;;;;;;;;;;;;;;;107168;1250;64131;-81
2024/03/29 00:06:10;;;;;;;;;;;;;;;;;;107164;1249;61987;-78
2024/03/29 00:08:37;;;;;;;;;;;;;;;;;;107134;1251;62119;-78
2024/03/29 00:11:03;;;;;;;;;;;;;;;;;;107148;1253;61970;-81
2024/03/29 00:13:29;;;;;;;;;;;;;;;;;;107193;1250;62076;-83
2024/03/29 00:15:55;;;;;;;;;;;;;;;;;;107194;1250;62074;-78
2024/03/29 00:18:21;;;;;;;;;;;;;;;;;;106557;1251;62140;-80
2024/03/29 00:20:47;;;;;;;;;;;;;;;;;;107152;1250;62019;-79
2024/03/29 00:23:13;;;;;;;;;;;;;;;;;;107155;1255;62105;-81
2024/03/29 00:25:40;;;;;;;;;;;;;;;;;;107136;1250;62497;-78
2024/03/29 00:28:06;;;;;;;;;;;;;;;;;;106618;1250;62496;-81
2024/03/29 00:30:33;;;;;;;;;;;;;;;;;;107199;1255;62091;-79
2024/03/29 00:32:59;;;;;;;;;;;;;;;;;;107187;1250;62084;-81
2024/03/29 00:35:25;;;;;;;;;;;;;;;;;;107177;1250;62076;-81
2024/03/29 00:37:52;;;;;;;;;;;;;;;;;;107160;1250;62751;-80
2024/03/29 00:40:18;;;;;;;;;;;;;;;;;;107187;1253;62121;-81
2024/03/29 00:42:44;;;;;;;;;;;;;;;;;;108618;1250;61944;-78
2024/03/29 00:45:10;;;;;;;;;;;;;;;;;;109672;1250;60030;-81
2024/03/29 00:47:36;;;;;;;;;;;;;;;;;;109663;1250;59711;-81
2024/03/29 00:50:02;;;;;;;;;;;;;;;;;;109699;1250;59962;-79
2024/03/29 00:52:29;;;;;;;;;;;;;;;;;;109670;1249;59908;-78
2024/03/29 00:54:55;;;;;;;;;;;;;;;;;;108538;1250;62032;-78
2024/03/29 00:57:21;;;;;;;;;;;;;;;;;;106527;1254;62214;-78
2024/03/29 00:59:47;;;;;;;;;;;;;;;;;;106576;1254;64054;-78
2024/03/29 01:02:14;;;;;;;;;;;;;;;;;;106655;1250;62084;-78
2024/03/29 01:04:40;;;;;;;;;;;;;;;;;;106600;1254;62071;-78
2024/03/29 01:07:06;;;;;;;;;;;;;;;;;;106660;1255;62167;-77
2024/03/29 01:09:32;;;;;;;;;;;;;;;;;;106676;1251;62030;-80
2024/03/29 01:11:58;;;;;;;;;;;;;;;;;;106599;1253;62201;-79
2024/03/29 01:14:24;;;;;;;;;;;;;;;;;;106601;1250;62164;-77
2024/03/29 01:16:51;;;;;;;;;;;;;;;;;;106635;1254;61985;-77
2024/03/29 01:19:17;;;;;;;;;;;;;;;;;;106618;1254;62157;-77
2024/03/29 01:21:43;;;;;;;;;;;;;;;;;;106617;1256;62175;-80
2024/03/29 01:24:09;;;;;;;;;;;;;;;;;;107207;1250;62060;-78
2024/03/29 01:26:36;;;;;;;;;;;;;;;;;;106597;1254;62123;-80
2024/03/29 01:29:02;;;;;;;;;;;;;;;;;;106539;1250;61971;-80
2024/03/29 01:31:28;;;;;;;;;;;;;;;;;;106586;1255;62318;-80
2024/03/29 01:33:57;;;;;;;;;;;;;;;;;;106612;1251;62098;-80
2024/03/29 01:36:23;;;;;;;;;;;;;;;;;;106638;1253;62150;-80
2024/03/29 01:38:54;;;;;;;;;;;;;;;;;;106610;1255;62129;-80
2024/03/29 01:41:20;;;;;;;;;;;;;;;;;;106560;1263;62230;-80
2024/03/29 01:43:46;;;;;;;;;;;;;;;;;;106570;1255;62070;-77
2024/03/29 01:46:12;;;;;;;;;;;;;;;;;;106570;1254;62072;-80
2024/03/29 01:48:39;;;;;;;;;;;;;;;;;;106604;1253;62796;-78
2024/03/29 01:51:05;;;;;;;;;;;;;;;;;;106547;1256;62258;-80
2024/03/29 01:53:31;;;;;;;;;;;;;;;;;;106589;1256;62104;-78
2024/03/29 01:55:57;;;;;;;;;;;;;;;;;;106572;1255;62025;-77
2024/03/29 01:58:23;;;;;;;;;;;;;;;;;;106561;1254;60025;-78
2024/03/29 02:00:50;;;;;;;;;;;;;;;;;;106590;1253;62146;-80
2024/03/29 02:03:16;;;;;;;;;;;;;;;;;;106617;1263;62266;-80
2024/03/29 02:05:42;;;;;;;;;;;;;;;;;;106699;1253;62002;-77
2024/03/29 02:08:08;;;;;;;;;;;;;;;;;;106681;1254;62174;-77
2024/03/29 02:10:34;;;;;;;;;;;;;;;;;;106649;1249;63776;-77
2024/03/29 02:13:00;;;;;;;;;;;;;;;;;;106746;1256;63303;-83
2024/03/29 02:15:27;;;;;;;;;;;;;;;;;;107280;1254;63240;-81
2024/03/29 02:17:53;;;;;;;;;;;;;;;;;;107287;1251;62135;-77
2024/03/29 02:20:19;;;;;;;;;;;;;;;;;;106643;1253;62041;-79
2024/03/29 02:22:45;;;;;;;;;;;;;;;;;;106598;1254;62419;-80
2024/03/29 02:25:11;;;;;;;;;;;;;;;;;;106575;1254;62159;-78
2024/03/29 02:27:38;;;;;;;;;;;;;;;;;;106543;1253;62154;-80
2024/03/29 02:30:04;;;;;;;;;;;;;;;;;;107871;1251;62089;-78
2024/03/29 02:32:30;;;;;;;;;;;;;;;;;;109703;1253;59674;-78
2024/03/29 02:34:56;;;;;;;;;;;;;;;;;;109698;1250;59739;-78
2024/03/29 02:37:22;;;;;;;;;;;;;;;;;;107063;1254;62246;-80
2024/03/29 02:39:48;;;;;;;;;;;;;;;;;;107493;1250;60297;-78
2024/03/29 02:42:15;;;;;;;;;;;;;;;;;;109692;1253;59707;-80
2024/03/29 02:44:41;;;;;;;;;;;;;;;;;;109724;1250;59879;-80
2024/03/29 02:47:07;;;;;;;;;;;;;;;;;;109698;1253;59666;-80
2024/03/29 02:49:33;;;;;;;;;;;;;;;;;;109668;1251;59888;-80
2024/03/29 02:51:59;;;;;;;;;;;;;;;;;;109669;1251;59828;-80
2024/03/29 02:54:25;;;;;;;;;;;;;;;;;;109640;1253;59983;-80
2024/03/29 02:56:51;;;;;;;;;;;;;;;;;;106927;1263;62210;-78
2024/03/29 02:59:17;;;;;;;;;;;;;;;;;;106546;1254;62166;-78
2024/03/29 03:01:44;;;;;;;;;;;;;;;;;;106558;1253;62004;-80
2024/03/29 03:04:10;;;;;;;;;;;;;;;;;;106613;1251;62079;-78
2024/03/29 03:06:36;;;;;;;;;;;;;;;;;;106615;1254;63932;-78
2024/03/29 03:11:47;;;;;;;;;;;;;;;;;;109647;1249;59659;-78
2024/03/29 03:14:13;;;;;;;;;;;;;;;;;;109355;1250;59648;-80
2024/03/29 03:16:39;;;;;;;;;;;;;;;;;;106623;1251;62153;-78
2024/03/29 03:19:05;;;;;;;;;;;;;;;;;;106625;1253;62173;-80
2024/03/29 03:21:31;;;;;;;;;;;;;;;;;;106600;1256;62105;-78
2024/03/29 03:23:58;;;;;;;;;;;;;;;;;;106594;1251;62165;-78
2024/03/29 03:26:24;;;;;;;;;;;;;;;;;;106563;1251;62142;-80
2024/03/29 03:28:50;;;;;;;;;;;;;;;;;;106611;1253;62083;-78
2024/03/29 03:31:16;;;;;;;;;;;;;;;;;;106570;1249;62082;-80
2024/03/29 03:33:42;;;;;;;;;;;;;;;;;;106614;1250;62144;-80
2024/03/29 03:36:09;;;;;;;;;;;;;;;;;;106551;1254;62029;-80
2024/03/29 03:38:36;;;;;;;;;;;;;;;;;;106596;1250;62141;-78
2024/03/29 03:41:03;;;;;;;;;;;;;;;;;;106637;1251;62093;-78
2024/03/29 03:43:29;;;;;;;;;;;;;;;;;;106537;1251;62130;-77
2024/03/29 03:45:55;;;;;;;;;;;;;;;;;;106543;1254;62293;-80
2024/03/29 03:48:21;;;;;;;;;;;;;;;;;;106556;1251;62775;-80
2024/03/29 03:50:47;;;;;;;;;;;;;;;;;;106655;1251;62099;-79
2024/03/29 03:53:13;;;;;;;;;;;;;;;;;;106590;1251;61884;-80
2024/03/29 03:55:39;;;;;;;;;;;;;;;;;;106576;1251;62122;-78
2024/03/29 03:58:06;;;;;;;;;;;;;;;;;;106557;1253;62186;-80
2024/03/29 04:00:32;;;;;;;;;;;;;;;;;;106586;1253;62014;-77
2024/03/29 04:02:58;;;;;;;;;;;;;;;;;;106581;1255;62112;-77
2024/03/29 04:05:25;;;;;;;;;;;;;;;;;;106589;1254;62099;-81
2024/03/29 04:07:51;;;;;;;;;;;;;;;;;;107181;1251;62070;-81
2024/03/29 04:10:18;;;;;;;;;;;;;;;;;;107226;1254;62556;-81
2024/03/29 04:12:44;;;;;;;;;;;;;;;;;;107130;1254;62035;-78
2024/03/29 04:15:10;;;;;;;;;;;;;;;;;;107198;1254;62234;-79
2024/03/29 04:17:36;;;;;;;;;;;;;;;;;;109281;1251;60148;-82
2024/03/29 04:20:02;;;;;;;;;;;;;;;;;;109661;1249;60088;-81
2024/03/29 04:22:29;;;;;;;;;;;;;;;;;;109671;1253;59926;-82
2024/03/29 04:24:55;;;;;;;;;;;;;;;;;;109675;1252;59870;-79
2024/03/29 04:27:21;;;;;;;;;;;;;;;;;;109705;1251;59697;-78
2024/03/29 04:29:47;;;;;;;;;;;;;;;;;;108746;1250;62071;-82
2024/03/29 04:32:13;;;;;;;;;;;;;;;;;;107364;1251;62623;-79
2024/03/29 04:34:39;;;;;;;;;;;;;;;;;;107374;1253;62142;-78
2024/03/29 04:37:06;;;;;;;;;;;;;;;;;;107318;1251;62005;-81
2024/03/29 04:39:32;;;;;;;;;;;;;;;;;;107271;1253;64173;-81
2024/03/29 04:41:58;;;;;;;;;;;;;;;;;;107255;1251;62163;-81
2024/03/29 04:44:24;;;;;;;;;;;;;;;;;;108396;1253;61977;-79
2024/03/29 04:46:51;;;;;;;;;;;;;;;;;;107738;1251;62152;-81
2024/03/29 04:49:17;;;;;;;;;;;;;;;;;;107469;1253;62128;-81
2024/03/29 04:51:43;;;;;;;;;;;;;;;;;;107218;1251;62128;-78
2024/03/29 04:54:09;;;;;;;;;;;;;;;;;;106615;1253;62102;-81
2024/03/29 04:56:36;;;;;;;;;;;;;;;;;;106599;1251;62070;-79
2024/03/29 04:59:02;;;;;;;;;;;;;;;;;;106616;1254;62169;-80
2024/03/29 05:01:28;;;;;;;;;;;;;;;;;;107165;1250;62074;-79
2024/03/29 05:03:54;;;;;;;;;;;;;;;;;;106625;1251;62170;-78
2024/03/29 05:06:21;;;;;;;;;;;;;;;;;;106550;1254;62486;-81
2024/03/29 05:08:47;;;;;;;;;;;;;;;;;;107134;1252;62070;-80
2024/03/29 05:11:15;;;;;;;;;;;;;;;;;;107261;1250;62032;-81
2024/03/29 05:13:41;;;;;;;;;;;;;;;;;;107207;1251;62166;-78
2024/03/29 05:16:07;;;;;;;;;;;;;;;;;;106633;1251;62077;-81
2024/03/29 05:18:33;;;;;;;;;;;;;;;;;;107262;1251;62061;-81
2024/03/29 05:21:00;;;;;;;;;;;;;;;;;;107253;1251;62076;-82
2024/03/29 05:23:26;;;;;;;;;;;;;;;;;;107287;1251;62227;-81
2024/03/29 05:25:52;;;;;;;;;;;;;;;;;;107241;1251;61903;-79
2024/03/29 05:28:18;;;;;;;;;;;;;;;;;;106636;1251;62099;-80
2024/03/29 05:30:44;;;;;;;;;;;;;;;;;;106623;1254;62089;-81
2024/03/29 05:33:11;;;;;;;;;;;;;;;;;;107220;1250;62077;-81
2024/03/29 05:35:37;;;;;;;;;;;;;;;;;;107190;1253;62089;-79
2024/03/29 05:38:03;;;;;;;;;;;;;;;;;;107218;1253;62073;-79
2024/03/29 05:40:29;;;;;;;;;;;;;;;;;;106606;1251;62147;-81
2024/03/29 05:42:55;;;;;;;;;;;;;;;;;;107198;1251;60462;-81
2024/03/29 05:45:21;;;;;;;;;;;;;;;;;;107222;1251;61950;-79
2024/03/29 05:47:48;;;;;;;;;;;;;;;;;;107205;1254;62156;-81
2024/03/29 05:50:14;;;;;;;;;;;;;;;;;;107197;1254;62137;-79
2024/03/29 05:52:40;;;;;;;;;;;;;;;;;;107268;1251;62169;-81
2024/03/29 05:55:07;;;;;;;;;;;;;;;;;;107258;1251;62140;-79
2024/03/29 05:57:37;;;;;;;;;;;;;;;;;;107288;1251;62148;-81
2024/03/29 06:00:03;;;;;;;;;;;;;;;;;;107287;1251;62698;-81
2024/03/29 06:02:30;;;;;;;;;;;;;;;;;;107376;1250;62990;-79
2024/03/29 06:04:56;;;;;;;;;;;;;;;;;;107510;1251;62064;-81
2024/03/29 06:07:22;;;;;;;;;;;;;;;;;;107332;1251;62150;-79
2024/03/29 06:09:48;;;;;;;;;;;;;;;;;;107100;1253;204697;-81
2024/03/29 06:12:14;;;;;;;;;;;;;;;;;;107300;1250;62116;-82
2024/03/29 06:17:29;;;;;;;;;;;;;;;;;;107300;1254;62164;-82
2024/03/29 06:19:56;;;;;;;;;;;;;;;;;;107160;1251;62058;-81
2024/03/29 06:22:23;;;;;;;;;;;;;;;;;;107135;1250;62131;-81
2024/03/29 06:24:51;;;;;;;;;;;;;;;;;;107252;1251;62771;-81
2024/03/29 06:27:17;;;;;;;;;;;;;;;;;;107267;1251;62075;-79
2024/03/29 06:29:44;;;;;;;;;;;;;;;;;;107257;1251;62137;-79
2024/03/29 06:32:10;;;;;;;;;;;;;;;;;;107170;1251;61006;-81
2024/03/29 06:34:36;;;;;;;;;;;;;;;;;;107272;1251;62032;-81
2024/03/29 06:37:02;;;;;;;;;;;;;;;;;;107285;1251;62096;-80
2024/03/29 06:39:29;;;;;;;;;;;;;;;;;;107227;1251;62023;-81
2024/03/29 06:41:55;;;;;;;;;;;;;;;;;;107354;1249;62098;-81
2024/03/29 06:44:21;;;;;;;;;;;;;;;;;;107373;1254;62457;-79
2024/03/29 06:46:47;;;;;;;;;;;;;;;;;;107405;1250;62133;-81
2024/03/29 06:49:13;;;;;;;;;;;;;;;;;;107310;1251;62133;-81
2024/03/29 06:51:40;;;;;;;;;;;;;;;;;;107206;1251;62150;-79
2024/03/29 06:54:06;;;;;;;;;;;;;;;;;;107166;1251;60657;-81
2024/03/29 06:56:32;;;;;;;;;;;;;;;;;;107274;1254;62120;-82
2024/03/29 06:58:58;;;;;;;;;;;;;;;;;;107357;1249;62147;-80
2024/03/29 07:01:24;;;;;;;;;;;;;;;;;;107201;1251;62086;-83
2024/03/29 07:03:50;;;;;;;;;;;;;;;;;;107246;1254;62057;-80
2024/03/29 07:06:17;;;;;;;;;;;;;;;;;;107508;1251;62169;-81
2024/03/29 07:08:43;;;;;;;;;;;;;;;;;;107298;1251;61891;-81
2024/03/29 07:11:10;;;;;;;;;;;;;;;;;;108700;1250;59959;-82
2024/03/29 07:13:36;;;;;;;;;;;;;;;;;;107998;1250;60188;-81
2024/03/29 07:16:03;;;;;;;;;;;;;;;;;;109593;1249;59748;-80
2024/03/29 07:18:29;;;;;;;;;;;;;;;;;;109582;1250;59673;-82
2024/03/29 07:20:55;;;;;;;;;;;;;;;;;;109574;1250;60232;-81
2024/03/29 07:23:21;;;;;;;;;;;;;;;;;;109653;1250;60560;-82
2024/03/29 07:25:48;;;;;;;;;;;;;;;;;;109680;1249;59633;-80
2024/03/29 07:28:14;;;;;;;;;;;;;;;;;;109793;1250;59676;-83
2024/03/29 07:30:40;;;;;;;;;;;;;;;;;;109655;1248;59678;-82
2024/03/29 07:33:09;;;;;;;;;;;;;;;;;;108697;1252;62163;-79
2024/03/29 07:35:35;;;;;;;;;;;;;;;;;;107462;1250;62150;-79
2024/03/29 07:38:01;;;;;;;;;;;;;;;;;;107192;1251;62178;-82
2024/03/29 07:40:27;;;;;;;;;;;;;;;;;;107408;1251;61952;-80
2024/03/29 07:42:53;;;;;;;;;;;;;;;;;;107271;1250;62127;-79
2024/03/29 07:45:19;;;;;;;;;;;;;;;;;;107336;1249;62140;-79
2024/03/29 07:47:49;;;;;;;;;;;;;;;;;;107273;1250;62104;-82
2024/03/29 07:50:16;;;;;;;;;;;;;;;;;;107236;1250;61946;-80
2024/03/29 07:52:42;;;;;;;;;;;;;;;;;;108911;1250;62009;-80
2024/03/29 07:55:10;;;;;;;;;;;;;;;;;;108599;1250;62132;-80
2024/03/29 07:57:36;;;;;;;;;;;;;;;;;;107267;1250;59816;-81
2024/03/29 08:00:02;;;;;;;;;;;;;;;;;;107276;1254;62163;-80
2024/03/29 08:02:30;;;;;;;;;;;;;;;;;;106644;1250;62076;-81
2024/03/29 08:04:56;;;;;;;;;;;;;;;;;;107300;1252;62182;-80
2024/03/29 08:07:22;;;;;;;;;;;;;;;;;;107276;1251;62134;-80
2024/03/29 08:09:48;;;;;;;;;;;;;;;;;;107357;1253;60758;-79
2024/03/29 08:12:15;;;;;;;;;;;;;;;;;;107239;1249;61931;-82
2024/03/29 08:14:41;;;;;;;;;;;;;;;;;;107354;1250;62011;-80
2024/03/29 08:17:09;;;;;;;;;;;;;;;;;;107290;1250;62096;-80
2024/03/29 08:19:35;;;;;;;;;;;;;;;;;;107314;1253;62073;-82
2024/03/29 08:22:01;;;;;;;;;;;;;;;;;;107223;1251;62153;-81
2024/03/29 08:24:28;;;;;;;;;;;;;;;;;;107226;1251;62840;-80
2024/03/29 08:26:54;;;;;;;;;;;;;;;;;;107395;1253;62039;-82
2024/03/29 08:29:20;;;;;;;;;;;;;;;;;;107294;1250;62739;-81
2024/03/29 08:31:46;;;;;;;;;;;;;;;;;;107386;1250;62157;-81
2024/03/29 08:34:13;;;;;;;;;;;;;;;;;;107409;1248;62073;-80
2024/03/29 08:36:40;;;;;;;;;;;;;;;;;;107257;1251;62175;-80
2024/03/29 08:39:06;;;;;;;;;;;;;;;;;;107226;1250;62692;-82
2024/03/29 08:41:32;;;;;;;;;;;;;;;;;;107262;1250;62032;-82
2024/03/29 08:43:58;;;;;;;;;;;;;;;;;;107371;1253;62159;-80
2024/03/29 08:46:24;;;;;;;;;;;;;;;;;;107269;1251;62297;-80
2024/03/29 08:48:50;;;;;;;;;;;;;;;;;;107211;1251;61948;-81
2024/03/29 08:51:17;;;;;;;;;;;;;;;;;;107355;1253;62060;-82
2024/03/29 08:53:43;;;;;;;;;;;;;;;;;;107390;1248;62153;-80
2024/03/29 08:56:09;;;;;;;;;;;;;;;;;;107366;1250;62150;-80
2024/03/29 08:58:36;;;;;;;;;;;;;;;;;;107651;1251;62124;-82
2024/03/29 09:01:04;;;;;;;;;;;;;;;;;;107316;1250;62039;-81
2024/03/29 09:03:31;;;;;;;;;;;;;;;;;;107377;1250;61948;-80
2024/03/29 09:05:58;;;;;;;;;;;;;;;;;;107387;1249;64178;-80
2024/03/29 09:08:24;;;;;;;;;;;;;;;;;;107338;1251;59873;-79
2024/03/29 09:10:50;;;;;;;;;;;;;;;;;;107260;1252;62096;-81
2024/03/29 09:13:16;;;;;;;;;;;;;;;;;;107381;1254;62043;-79
2024/03/29 09:15:42;;;;;;;;;;;;;;;;;;107416;1250;62134;-81
2024/03/29 09:18:19;;;;;;;;;;;;;;;;;;107356;1254;62125;-81
2024/03/29 09:20:45;;;;;;;;;;;;;;;;;;107411;1249;62029;-79
2024/03/29 09:23:15;;;;;;;;;;;;;;;;;;107353;1250;62157;-79
2024/03/29 09:25:41;;;;;;;;;;;;;;;;;;107381;1250;62172;-79
2024/03/29 09:28:09;;;;;;;;;;;;;;;;;;107222;1249;62108;-81
2024/03/29 09:30:36;;;;;;;;;;;;;;;;;;107359;1250;62723;-79
2024/03/29 09:33:06;;;;;;;;;;;;;;;;;;107429;1251;62060;-81
2024/03/29 09:35:32;;;;;;;;;;;;;;;;;;107329;1250;63860;-80
2024/03/29 09:37:59;;;;;;;;;;;;;;;;;;107396;1251;62163;-79
2024/03/29 09:40:25;;;;;;;;;;;;;;;;;;106742;1251;62119;-79
2024/03/29 09:42:52;;;;;;;;;;;;;;;;;;106686;1254;64214;-78
2024/03/29 09:45:18;;;;;;;;;;;;;;;;;;106676;1250;62086;-78
2024/03/29 09:47:44;;;;;;;;;;;;;;;;;;106632;1250;62049;-81
2024/03/29 09:50:12;;;;;;;;;;;;;;;;;;107276;1250;62183;-81
2024/03/29 09:52:38;;;;;;;;;;;;;;;;;;107179;1250;62060;-79
2024/03/29 09:55:04;;;;;;;;;;;;;;;;;;107222;1254;62111;-79
2024/03/29 09:57:31;;;;;;;;;;;;;;;;;;107341;1250;62092;-81
2024/03/29 09:59:57;;;;;;;;;;;;;;;;;;109684;1250;59725;-81
2024/03/29 10:02:24;;;;;;;;;;;;;;;;;;107471;1250;61983;-81
2024/03/29 10:04:50;;;;;;;;;;;;;;;;;;107295;1250;62761;-81
2024/03/29 10:07:16;;;;;;;;;;;;;;;;;;107310;1254;62050;-81
2024/03/29 10:09:44;;;;;;;;;;;;;;;;;;107560;1250;61965;-79
2024/03/29 10:12:10;;;;;;;;;;;;;;;;;;107375;1250;61959;-79
2024/03/29 10:14:36;;;;;;;;;;;;;;;;;;107460;1254;62116;-81
2024/03/29 10:17:02;;;;;;;;;;;;;;;;;;107367;1248;61919;-82
2024/03/29 10:19:28;;;;;;;;;;;;;;;;;;107342;1249;61119;-81
2024/03/29 10:21:54;;;;;;;;;;;;;;;;;;107318;1251;62038;-78
2024/03/29 10:24:21;;;;;;;;;;;;;;;;;;107224;1250;63259;-79
2024/03/29 10:26:47;;;;;;;;;;;;;;;;;;108384;1249;62011;-81
2024/03/29 10:29:14;;;;;;;;;;;;;;;;;;108398;1249;62234;-80
2024/03/29 10:31:40;;;;;;;;;;;;;;;;;;107378;1250;62058;-80
2024/03/29 10:34:08;;;;;;;;;;;;;;;;;;107357;1254;62141;-79
2024/03/29 10:36:35;;;;;;;;;;;;;;;;;;107422;1249;61992;-80
2024/03/29 10:39:01;;;;;;;;;;;;;;;;;;107245;1249;62122;-78
2024/03/29 10:41:28;;;;;;;;;;;;;;;;;;107298;1250;62038;-78
2024/03/29 10:43:55;;;;;;;;;;;;;;;;;;106758;1250;62085;-81
2024/03/29 10:46:21;;;;;;;;;;;;;;;;;;106581;1251;62145;-78
2024/03/29 10:48:47;;;;;;;;;;;;;;;;;;106720;1250;62124;-80
2024/03/29 10:51:13;;;;;;;;;;;;;;;;;;106734;1250;62070;-81
2024/03/29 10:53:39;;;;;;;;;;;;;;;;;;107545;1250;62066;-80
2024/03/29 10:56:06;;;;;;;;;;;;;;;;;;107299;1250;62077;-80
2024/03/29 10:58:32;;;;;;;;;;;;;;;;;;107364;1251;62074;-80
2024/03/29 11:00:58;;;;;;;;;;;;;;;;;;107444;1250;62220;-81
2024/03/29 11:03:24;;;;;;;;;;;;;;;;;;107292;1250;62057;-81
2024/03/29 11:05:50;;;;;;;;;;;;;;;;;;107512;1250;62153;-79
2024/03/29 11:08:17;;;;;;;;;;;;;;;;;;107544;1250;62035;-79
2024/03/29 11:10:45;;;;;;;;;;;;;;;;;;107325;1251;60093;-79
2024/03/29 11:13:11;;;;;;;;;;;;;;;;;;107850;1249;62035;-81
2024/03/29 11:15:37;;;;;;;;;;;;;;;;;;107447;1250;62172;-80
2024/03/29 11:18:04;;;;;;;;;;;;;;;;;;107234;1250;62121;-80
2024/03/29 11:20:34;;;;;;;;;;;;;;;;;;107180;1253;62063;-81
2024/03/29 11:23:05;;;;;;;;;;;;;;;;;;106982;1250;62621;-81
2024/03/29 11:25:31;;;;;;;;;;;;;;;;;;106481;1253;62149;-80
2024/03/29 11:27:58;;;;;;;;;;;;;;;;;;107124;1250;62093;-80
2024/03/29 11:30:24;;;;;;;;;;;;;;;;;;106999;1253;62057;-80
2024/03/29 11:32:55;;;;;;;;;;;;;;;;;;106928;1250;62160;-79
2024/03/29 11:35:23;;;;;;;;;;;;;;;;;;106490;1251;62722;-78
2024/03/29 11:37:49;;;;;;;;;;;;;;;;;;106523;1253;62361;-79
2024/03/29 11:40:16;;;;;;;;;;;;;;;;;;106554;1251;62120;-81
2024/03/29 11:42:42;;;;;;;;;;;;;;;;;;106534;1254;62222;-80
2024/03/29 11:45:10;;;;;;;;;;;;;;;;;;107139;1251;62068;-80
2024/03/29 11:47:36;;;;;;;;;;;;;;;;;;106880;1250;62361;-80
2024/03/29 11:50:02;;;;;;;;;;;;;;;;;;106988;1250;62134;-82
2024/03/29 11:52:28;;;;;;;;;;;;;;;;;;107153;1250;62210;-83
2024/03/29 11:54:54;;;;;;;;;;;;;;;;;;106979;1250;62153;-82
2024/03/29 11:57:21;;;;;;;;;;;;;;;;;;106967;1250;62574;-80
2024/03/29 11:59:48;;;;;;;;;;;;;;;;;;106971;1250;63457;-80
2024/03/29 12:02:14;;;;;;;;;;;;;;;;;;106911;1250;61956;-80
2024/03/29 12:04:41;;;;;;;;;;;;;;;;;;106888;1250;62871;-80
2024/03/29 12:07:07;;;;;;;;;;;;;;;;;;106850;1250;62144;-81
2024/03/29 12:09:33;;;;;;;;;;;;;;;;;;107019;1249;62107;-81
2024/03/29 12:12:05;;;;;;;;;;;;;;;;;;107187;1251;62150;-79
2024/03/29 12:14:34;;;;;;;;;;;;;;;;;;107081;1250;62071;-82
2024/03/29 12:17:01;;;;;;;;;;;;;;;;;;107145;1250;62115;-80
2024/03/29 12:19:27;;;;;;;;;;;;;;;;;;106985;1254;62161;-81
2024/03/29 12:21:53;;;;;;;;;;;;;;;;;;107064;1250;62079;-79
2024/03/29 12:24:19;;;;;;;;;;;;;;;;;;106914;1251;62157;-81
2024/03/29 12:26:45;;;;;;;;;;;;;;;;;;107263;1253;61971;-79
2024/03/29 12:29:12;;;;;;;;;;;;;;;;;;106993;1251;62109;-78
2024/03/29 12:31:39;;;;;;;;;;;;;;;;;;106836;1253;62134;-81
2024/03/29 12:34:06;;;;;;;;;;;;;;;;;;106891;1251;62160;-79
2024/03/29 12:36:33;;;;;;;;;;;;;;;;;;106979;1250;62141;-81
2024/03/29 12:39:02;;;;;;;;;;;;;;;;;;107236;1250;62092;-81
2024/03/29 12:41:28;;;;;;;;;;;;;;;;;;106994;1251;62300;-81
2024/03/29 12:43:55;;;;;;;;;;;;;;;;;;107099;1251;60375;-81
2024/03/29 12:46:21;;;;;;;;;;;;;;;;;;106972;1253;60090;-79
2024/03/29 12:48:47;;;;;;;;;;;;;;;;;;107383;1248;62071;-81
2024/03/29 12:51:13;;;;;;;;;;;;;;;;;;107232;1253;62126;-79
2024/03/29 12:53:39;;;;;;;;;;;;;;;;;;107173;1249;61905;-81
2024/03/29 12:56:06;;;;;;;;;;;;;;;;;;107270;1251;62062;-81
2024/03/29 12:58:32;;;;;;;;;;;;;;;;;;107259;1251;62038;-80
2024/03/29 13:00:58;;;;;;;;;;;;;;;;;;107236;1250;62221;-81
2024/03/29 13:03:24;;;;;;;;;;;;;;;;;;107106;1249;62099;-79
2024/03/29 13:05:50;;;;;;;;;;;;;;;;;;107081;1253;62137;-79
2024/03/29 13:08:16;;;;;;;;;;;;;;;;;;106950;1250;62076;-79
2024/03/29 13:10:42;;;;;;;;;;;;;;;;;;107058;1253;62175;-79
2024/03/29 13:13:09;;;;;;;;;;;;;;;;;;107163;1254;62012;-79
2024/03/29 13:15:36;;;;;;;;;;;;;;;;;;107085;1248;62197;-79
2024/03/29 13:18:02;;;;;;;;;;;;;;;;;;106980;1250;62153;-79
2024/03/29 13:20:28;;;;;;;;;;;;;;;;;;107032;1253;62156;-81
2024/03/29 13:22:55;;;;;;;;;;;;;;;;;;106997;1250;61874;-80
2024/03/29 13:25:21;;;;;;;;;;;;;;;;;;106959;1248;62060;-79
2024/03/29 13:27:48;;;;;;;;;;;;;;;;;;107097;1250;62149;-79
2024/03/29 13:30:15;;;;;;;;;;;;;;;;;;106955;1250;62153;-81
2024/03/29 13:32:41;;;;;;;;;;;;;;;;;;107261;1251;62098;-79
2024/03/29 13:35:09;;;;;;;;;;;;;;;;;;107258;1253;62624;-80
2024/03/29 13:37:35;;;;;;;;;;;;;;;;;;107300;1253;61973;-81
2024/03/29 13:40:03;;;;;;;;;;;;;;;;;;107459;1254;60197;-81
2024/03/29 13:42:31;;;;;;;;;;;;;;;;;;107296;1250;63244;-79
2024/03/29 13:44:57;;;;;;;;;;;;;;;;;;107577;1248;61965;-81
2024/03/29 13:47:23;;;;;;;;;;;;;;;;;;107343;1248;62067;-81
2024/03/29 13:49:52;;;;;;;;;;;;;;;;;;106930;1248;63088;-81
2024/03/29 13:52:19;;;;;;;;;;;;;;;;;;107043;1251;62103;-79
2024/03/29 13:54:46;;;;;;;;;;;;;;;;;;106962;1253;63077;-79
2024/03/29 13:57:12;;;;;;;;;;;;;;;;;;106948;1249;62030;-79
2024/03/29 13:59:39;;;;;;;;;;;;;;;;;;107219;1249;61949;-79
2024/03/29 14:02:05;;;;;;;;;;;;;;;;;;107045;1253;62150;-82
2024/03/29 14:04:31;;;;;;;;;;;;;;;;;;107098;1251;62084;-79
2024/03/29 14:06:57;;;;;;;;;;;;;;;;;;106960;1254;62112;-81
2024/03/29 14:09:23;;;;;;;;;;;;;;;;;;106893;1249;62151;-81
2024/03/29 14:11:49;;;;;;;;;;;;;;;;;;107136;1254;62029;-79
2024/03/29 14:14:16;;;;;;;;;;;;;;;;;;107069;1253;62080;-79
2024/03/29 14:16:42;;;;;;;;;;;;;;;;;;106468;1254;62545;-80
2024/03/29 14:19:08;;;;;;;;;;;;;;;;;;106955;1250;62138;-81
2024/03/29 14:21:34;;;;;;;;;;;;;;;;;;106898;1254;62016;-79
2024/03/29 14:24:00;;;;;;;;;;;;;;;;;;106994;1250;61820;-79
2024/03/29 14:26:26;;;;;;;;;;;;;;;;;;106987;1251;62131;-79
2024/03/29 14:28:53;;;;;;;;;;;;;;;;;;106464;1250;62103;-82
2024/03/29 14:31:19;;;;;;;;;;;;;;;;;;106880;1254;62077;-79
2024/03/29 14:33:46;;;;;;;;;;;;;;;;;;107073;1248;62143;-80
2024/03/29 14:36:12;;;;;;;;;;;;;;;;;;107290;1248;62096;-80
2024/03/29 14:38:39;;;;;;;;;;;;;;;;;;107202;1251;62755;-79
2024/03/29 14:41:05;;;;;;;;;;;;;;;;;;106912;1254;62069;-79
2024/03/29 14:43:32;;;;;;;;;;;;;;;;;;106847;1250;62352;-79
2024/03/29 14:45:59;;;;;;;;;;;;;;;;;;107074;1248;62172;-81
2024/03/29 14:48:25;;;;;;;;;;;;;;;;;;107200;1248;62601;-81
2024/03/29 14:50:52;;;;;;;;;;;;;;;;;;106869;1251;62102;-81
2024/03/29 14:53:18;;;;;;;;;;;;;;;;;;106909;1250;62134;-79
2024/03/29 14:55:44;;;;;;;;;;;;;;;;;;106891;1250;62061;-81
2024/03/29 14:58:10;;;;;;;;;;;;;;;;;;106904;1253;62034;-81
2024/03/29 15:00:36;;;;;;;;;;;;;;;;;;106884;1248;62064;-81
2024/03/29 15:03:02;;;;;;;;;;;;;;;;;;107012;1250;62132;-80
2024/03/29 15:05:28;;;;;;;;;;;;;;;;;;106915;1250;62015;-81
2024/03/29 15:07:55;;;;;;;;;;;;;;;;;;106978;1250;62093;-81
2024/03/29 15:10:21;;;;;;;;;;;;;;;;;;106993;1250;62070;-79
2024/03/29 15:12:47;;;;;;;;;;;;;;;;;;106910;1250;62150;-81
2024/03/29 15:15:14;;;;;;;;;;;;;;;;;;106954;1250;62122;-79
2024/03/29 15:17:41;;;;;;;;;;;;;;;;;;106942;1250;62066;-79
2024/03/29 15:20:09;;;;;;;;;;;;;;;;;;106879;1251;63416;-81
2024/03/29 15:22:35;;;;;;;;;;;;;;;;;;106892;1250;62031;-80
2024/03/29 15:25:01;;;;;;;;;;;;;;;;;;106939;1254;63093;-80
2024/03/29 15:30:12;;;;;;;;;;;;;;;;;;107061;1252;61990;-79
2024/03/29 15:32:39;;;;;;;;;;;;;;;;;;106922;1250;62031;-81
2024/03/29 15:35:05;;;;;;;;;;;;;;;;;;106949;1251;62070;-78
2024/03/29 15:37:31;;;;;;;;;;;;;;;;;;106899;1251;62160;-81
2024/03/29 15:39:57;;;;;;;;;;;;;;;;;;106864;1250;62067;-80
2024/03/29 15:42:23;;;;;;;;;;;;;;;;;;106845;1253;62080;-79
2024/03/29 15:44:50;;;;;;;;;;;;;;;;;;107127;1252;62160;-81
2024/03/29 15:47:16;;;;;;;;;;;;;;;;;;106882;1250;63127;-81
2024/03/29 15:49:43;;;;;;;;;;;;;;;;;;106832;1254;62159;-81
2024/03/29 15:52:09;;;;;;;;;;;;;;;;;;106896;1249;62074;-79
2024/03/29 15:54:35;;;;;;;;;;;;;;;;;;106934;1255;62137;-81
2024/03/29 15:57:01;;;;;;;;;;;;;;;;;;106830;1251;62099;-80
2024/03/29 15:59:27;;;;;;;;;;;;;;;;;;106972;1254;62029;-79
2024/03/29 16:01:55;;;;;;;;;;;;;;;;;;106924;1248;62691;-81
2024/03/29 16:04:21;;;;;;;;;;;;;;;;;;106938;1250;61919;-81
2024/03/29 16:06:47;;;;;;;;;;;;;;;;;;107129;1251;63212;-80
2024/03/29 16:09:13;;;;;;;;;;;;;;;;;;107156;1253;63117;-78
2024/03/29 16:11:40;;;;;;;;;;;;;;;;;;107142;1255;62157;-81
2024/03/29 16:14:07;;;;;;;;;;;;;;;;;;107183;1254;62479;-81
2024/03/29 16:16:33;;;;;;;;;;;;;;;;;;107173;1255;62177;-78
2024/03/29 16:19:00;;;;;;;;;;;;;;;;;;107305;1255;61986;-79
2024/03/29 16:21:26;;;;;;;;;;;;;;;;;;107346;1250;61770;-78
2024/03/29 16:23:52;;;;;;;;;;;;;;;;;;106656;1256;61990;-79
2024/03/29 16:26:18;;;;;;;;;;;;;;;;;;106638;1250;62234;-81
2024/03/29 16:28:45;;;;;;;;;;;;;;;;;;107209;1254;62087;-80
2024/03/29 16:31:11;;;;;;;;;;;;;;;;;;107258;1250;62154;-81